Time;durP1;ratioP1;P1;durP2;ratioP2;P2;SDS_P1;SDS_P2;PMS_P1;PMS_P2;Temp;Humidity;BMP_temperature;BMP_pressure;BME280_temperature;BME280_humidity;BME280_pressure;Samples;Min_cycle;Max_cycle;Signal;HPM_P1;HPM_P2
2023/07/04 00:00:07;;;;;;;;;;;;;;;26.52;57.35;101133.38;5004560;28;19995;-82
2023/07/04 00:02:33;;;;;;;;;;;;;;;26.50;57.33;101135.19;4992222;28;19913;-82
2023/07/04 00:04:59;;;;;;;;;;;;;;;26.52;57.41;101136.06;5014321;28;19909;-82
2023/07/04 00:07:25;;;;;;;;;;;;;;;26.51;57.22;101126.25;5001801;28;19916;-82
2023/07/04 00:09:51;;;;;;;;;;;;;;;26.51;57.39;101128.94;5004348;28;19917;-82
2023/07/04 00:12:16;;;;;;;;;;;;;;;26.52;57.39;101130.69;5007578;28;19967;-82
2023/07/04 00:14:43;;;;;;;;;;;;;;;26.51;57.68;101131.63;5002941;28;20016;-82
2023/07/04 00:17:08;;;;;;;;;;;;;;;26.49;57.35;101125.38;4992815;28;19916;-82
2023/07/04 00:19:34;;;;;;;;;;;;;;;26.49;57.64;101123.59;5007036;28;19917;-82
2023/07/04 00:21:59;;;;;;;;;;;;;;;26.49;57.37;101131.63;4993506;28;20307;-82
2023/07/04 00:24:25;;;;;;;;;;;;;;;26.48;57.76;101123.59;5012105;28;19972;-82
2023/07/04 00:26:50;;;;;;;;;;;;;;;26.46;57.49;101120.03;5011257;28;20355;-82
2023/07/04 00:29:17;;;;;;;;;;;;;;;26.48;57.76;101115.53;5007024;28;19913;-82
2023/07/04 00:31:42;;;;;;;;;;;;;;;26.47;57.39;101105.75;5001723;28;19910;-83
2023/07/04 00:34:08;;;;;;;;;;;;;;;26.47;57.57;101108.44;5002183;28;19924;-82
2023/07/04 00:36:34;;;;;;;;;;;;;;;26.45;57.89;101110.22;5013328;28;19949;-82
2023/07/04 00:39:00;;;;;;;;;;;;;;;26.43;57.79;101110.22;5010187;28;19910;-82
2023/07/04 00:41:26;;;;;;;;;;;;;;;26.43;57.90;101107.53;5002973;28;19975;-82
2023/07/04 00:44:01;;;;;;;;;;;;;;;26.44;57.51;101116.47;5001539;28;19910;-82
2023/07/04 00:46:37;;;;;;;;;;;;;;;26.41;57.68;101110.22;4998282;28;20392;-82
2023/07/04 00:49:22;;;;;;;;;;;;;;;26.41;57.60;101112.03;5001420;28;19964;-83
2023/07/04 00:51:51;;;;;;;;;;;;;;;26.41;57.69;101110.22;5011595;28;20352;-83
2023/07/04 00:54:17;;;;;;;;;;;;;;;26.41;57.67;101110.22;4993467;28;19917;-83
2023/07/04 00:56:43;;;;;;;;;;;;;;;26.40;57.61;101112.94;5021710;28;20346;-81
2023/07/04 00:59:09;;;;;;;;;;;;;;;26.37;57.47;101108.50;5011458;28;19981;-82
2023/07/04 01:01:34;;;;;;;;;;;;;;;26.39;57.66;101119.16;5001246;28;19917;-82
2023/07/04 01:04:03;;;;;;;;;;;;;;;26.37;57.80;101113.84;5007336;28;19955;-82
2023/07/04 01:06:35;;;;;;;;;;;;;;;26.37;57.63;101113.84;5020463;28;19913;-82
2023/07/04 01:09:01;;;;;;;;;;;;;;;26.39;57.54;101114.72;4989045;28;20367;-82
2023/07/04 01:11:29;;;;;;;;;;;;;;;26.39;57.54;101116.50;4997565;28;19940;-83
2023/07/04 01:13:55;;;;;;;;;;;;;;;26.39;57.65;101122.75;4989976;28;19979;-82
2023/07/04 01:16:20;;;;;;;;;;;;;;;26.35;57.66;101114.72;5014869;28;20443;-82
2023/07/04 01:18:50;;;;;;;;;;;;;;;26.36;57.67;101116.53;5023582;28;20020;-82
2023/07/04 01:21:17;;;;;;;;;;;;;;;26.37;57.55;101123.66;5002139;28;19921;-82
2023/07/04 01:24:01;;;;;;;;;;;;;;;26.36;57.48;101120.09;4993828;28;19913;-82
2023/07/04 01:26:32;;;;;;;;;;;;;;;26.36;57.43;101114.72;5007021;28;19922;-82
2023/07/04 01:28:59;;;;;;;;;;;;;;;26.37;57.51;101112.94;5000849;28;19971;-82
2023/07/04 01:31:25;;;;;;;;;;;;;;;26.35;57.48;101115.66;4994254;28;20387;-82
2023/07/04 01:33:51;;;;;;;;;;;;;;;26.35;57.55;101117.41;5001519;28;20531;-82
2023/07/04 01:36:16;;;;;;;;;;;;;;;26.36;57.54;101119.19;4994145;28;20003;-82
2023/07/04 01:38:42;;;;;;;;;;;;;;;26.33;57.25;101113.84;5003147;28;19918;-82
2023/07/04 01:41:07;;;;;;;;;;;;;;;26.35;57.50;101117.41;5010053;28;20406;-82
2023/07/04 01:43:33;;;;;;;;;;;;;;;26.34;57.42;101110.28;5009828;28;20384;-82
2023/07/04 01:45:59;;;;;;;;;;;;;;;26.34;57.65;101118.31;5007557;28;20334;-82
2023/07/04 01:48:24;;;;;;;;;;;;;;;26.36;57.22;101119.19;5015086;28;19968;-82
2023/07/04 01:50:50;;;;;;;;;;;;;;;26.33;57.30;101117.44;4996382;28;20419;-82
2023/07/04 01:53:16;;;;;;;;;;;;;;;26.33;57.56;101120.13;5015078;28;19956;-82
2023/07/04 01:55:41;;;;;;;;;;;;;;;26.33;57.67;101119.19;5014047;28;20352;-82
2023/07/04 01:58:06;;;;;;;;;;;;;;;26.30;57.37;101120.13;5003501;28;19913;-82
2023/07/04 02:00:32;;;;;;;;;;;;;;;26.31;57.34;101121.91;5017023;28;20502;-81
2023/07/04 02:02:57;;;;;;;;;;;;;;;26.30;57.31;101125.47;5011904;28;20308;-82
2023/07/04 02:05:23;;;;;;;;;;;;;;;26.32;57.57;101129.03;5013236;28;20022;-81
2023/07/04 02:07:48;;;;;;;;;;;;;;;26.29;57.47;101125.47;5011328;28;19914;-82
2023/07/04 02:10:14;;;;;;;;;;;;;;;26.29;57.31;101122.78;5007744;28;19971;-81
2023/07/04 02:12:39;;;;;;;;;;;;;;;26.29;57.15;101126.38;5014621;28;20372;-81
2023/07/04 02:15:07;;;;;;;;;;;;;;;26.30;57.13;101127.25;5011724;28;19920;-81
2023/07/04 02:17:33;;;;;;;;;;;;;;;26.28;57.21;101140.66;5023936;28;19948;-82
2023/07/04 02:19:58;;;;;;;;;;;;;;;26.28;57.02;101137.97;5016282;28;20371;-81
2023/07/04 02:22:24;;;;;;;;;;;;;;;26.28;57.63;101134.41;5012221;28;20401;-81
2023/07/04 02:24:49;;;;;;;;;;;;;;;26.27;57.15;101128.19;5013930;28;20383;-81
2023/07/04 02:27:15;;;;;;;;;;;;;;;26.27;57.45;101125.50;5012160;28;20402;-82
2023/07/04 02:29:40;;;;;;;;;;;;;;;26.26;57.40;101122.81;5012549;28;19909;-82
2023/07/04 02:32:06;;;;;;;;;;;;;;;26.26;56.99;101115.69;5012262;28;19959;-81
2023/07/04 02:34:31;;;;;;;;;;;;;;;26.26;57.53;101125.50;5006205;28;20351;-82
2023/07/04 02:36:56;;;;;;;;;;;;;;;26.26;57.38;101123.72;5012905;28;19920;-81
2023/07/04 02:39:26;;;;;;;;;;;;;;;26.26;57.40;101117.47;5017476;28;19920;-81
2023/07/04 02:41:51;;;;;;;;;;;;;;;26.25;57.07;101116.59;5022914;28;19917;-82
2023/07/04 02:44:16;;;;;;;;;;;;;;;26.24;57.55;101120.16;5019498;28;19913;-82
2023/07/04 02:46:42;;;;;;;;;;;;;;;26.22;57.38;101119.25;5004450;28;19932;-82
2023/07/04 02:49:07;;;;;;;;;;;;;;;26.20;57.39;101124.66;5004322;28;20376;-82
2023/07/04 02:51:33;;;;;;;;;;;;;;;26.20;57.37;101130.00;5012176;28;19912;-82
2023/07/04 02:53:58;;;;;;;;;;;;;;;26.20;57.56;101126.41;5012500;28;19928;-82
2023/07/04 02:56:24;;;;;;;;;;;;;;;26.20;57.33;101121.06;5010718;28;19964;-82
2023/07/04 02:58:49;;;;;;;;;;;;;;;26.19;57.62;101130.88;5011395;28;19949;-81
2023/07/04 03:01:17;;;;;;;;;;;;;;;26.20;57.59;101134.44;5017768;28;20671;-81
2023/07/04 03:03:43;;;;;;;;;;;;;;;26.18;57.38;101131.78;5008512;28;19984;-82
2023/07/04 03:06:08;;;;;;;;;;;;;;;26.18;57.38;101136.25;5017053;28;19947;-82
2023/07/04 03:08:33;;;;;;;;;;;;;;;26.14;57.41;101140.72;5015413;28;20412;-82
2023/07/04 03:10:59;;;;;;;;;;;;;;;26.14;57.54;101140.72;5002669;28;19948;-81
2023/07/04 03:13:25;;;;;;;;;;;;;;;26.16;57.57;101146.06;5019217;28;19913;-81
2023/07/04 03:15:50;;;;;;;;;;;;;;;26.14;57.33;101145.19;5016263;28;20344;-81
2023/07/04 03:18:16;;;;;;;;;;;;;;;26.14;57.58;101143.41;5009092;28;19917;-81
2023/07/04 03:20:41;;;;;;;;;;;;;;;26.14;57.52;101146.09;5012554;28;19919;-82
2023/07/04 03:23:06;;;;;;;;;;;;;;;26.13;57.83;101149.66;4998201;28;20043;-82
2023/07/04 03:25:32;;;;;;;;;;;;;;;26.12;57.61;101150.56;4996916;28;20003;-82
2023/07/04 03:27:57;;;;;;;;;;;;;;;26.13;57.79;101155.00;4991736;28;19913;-82
2023/07/04 03:30:23;;;;;;;;;;;;;;;26.12;57.55;101158.59;5008889;28;20372;-82
2023/07/04 03:32:48;;;;;;;;;;;;;;;26.12;57.61;101161.25;5001389;28;20402;-82
2023/07/04 03:35:14;;;;;;;;;;;;;;;26.11;57.35;101159.47;5000294;28;20371;-82
2023/07/04 03:37:40;;;;;;;;;;;;;;;26.11;57.62;101158.59;4981545;28;20388;-82
2023/07/04 03:40:09;;;;;;;;;;;;;;;26.10;57.30;101152.34;5015131;28;19917;-80
2023/07/04 03:42:35;;;;;;;;;;;;;;;26.11;57.18;101148.75;5013783;28;19956;-80
2023/07/04 03:45:01;;;;;;;;;;;;;;;26.06;57.37;101141.66;5011233;28;19913;-81
2023/07/04 03:47:26;;;;;;;;;;;;;;;26.10;57.48;101147.00;4992949;28;20409;-81
2023/07/04 03:49:52;;;;;;;;;;;;;;;26.10;57.46;101151.44;5013737;28;20381;-80
2023/07/04 03:52:17;;;;;;;;;;;;;;;26.09;57.59;101145.19;5013910;28;20461;-80
2023/07/04 03:54:43;;;;;;;;;;;;;;;26.08;57.75;101153.25;5014729;28;20407;-81
2023/07/04 03:57:08;;;;;;;;;;;;;;;26.06;57.49;101152.38;4991965;28;20419;-81
2023/07/04 03:59:35;;;;;;;;;;;;;;;26.06;57.95;101157.72;5007117;28;19917;-80
2023/07/04 04:02:01;;;;;;;;;;;;;;;26.05;57.88;101154.13;5012299;28;19972;-80
2023/07/04 04:04:26;;;;;;;;;;;;;;;26.06;57.83;101157.72;5010860;28;19918;-80
2023/07/04 04:06:55;;;;;;;;;;;;;;;26.06;58.05;101158.59;5003184;28;19964;-80
2023/07/04 04:09:20;;;;;;;;;;;;;;;26.04;57.62;101163.06;5010731;28;19971;-80
2023/07/04 04:11:46;;;;;;;;;;;;;;;26.01;57.70;101160.41;5012612;28;19925;-80
2023/07/04 04:14:11;;;;;;;;;;;;;;;26.04;57.88;101164.88;5007373;28;19922;-80
2023/07/04 04:16:37;;;;;;;;;;;;;;;26.05;57.77;101163.97;5000614;28;19971;-80
2023/07/04 04:19:03;;;;;;;;;;;;;;;26.01;57.78;101165.75;5005346;28;20410;-79
2023/07/04 04:21:28;;;;;;;;;;;;;;;26.02;57.82;101164.88;5012968;28;19925;-80
2023/07/04 04:23:54;;;;;;;;;;;;;;;26.00;57.70;101162.19;5006741;28;19913;-80
2023/07/04 04:26:20;;;;;;;;;;;;;;;26.01;57.54;101171.09;5007493;28;20350;-80
2023/07/04 04:28:46;;;;;;;;;;;;;;;26.00;57.74;101169.34;5001402;28;19910;-80
2023/07/04 04:31:11;;;;;;;;;;;;;;;26.03;57.67;101163.06;4992233;28;19921;-80
2023/07/04 04:33:37;;;;;;;;;;;;;;;26.03;57.83;101171.97;4989343;28;19921;-79
2023/07/04 04:36:02;;;;;;;;;;;;;;;26.03;57.43;101165.75;4988270;28;19973;-79
2023/07/04 04:38:28;;;;;;;;;;;;;;;26.04;57.19;101167.53;4987396;28;19960;-79
2023/07/04 04:40:56;;;;;;;;;;;;;;;26.02;57.13;101170.22;4985206;28;19972;-80
2023/07/04 04:43:22;;;;;;;;;;;;;;;26.03;57.26;101174.66;4983202;28;19918;-80
2023/07/04 04:45:47;;;;;;;;;;;;;;;26.03;57.28;101169.31;4983056;28;20376;-80
2023/07/04 04:48:18;;;;;;;;;;;;;;;26.04;57.49;101167.53;4989487;28;20387;-81
2023/07/04 04:50:46;;;;;;;;;;;;;;;26.05;57.35;101172.00;4994535;28;20000;-81
2023/07/04 04:53:14;;;;;;;;;;;;;;;26.02;57.51;101161.31;4997914;28;19965;-81
2023/07/04 04:55:40;;;;;;;;;;;;;;;26.05;57.76;101172.00;4988235;28;20008;-81
2023/07/04 04:58:05;;;;;;;;;;;;;;;26.04;57.68;101168.44;4999529;28;20012;-80
2023/07/04 05:00:30;;;;;;;;;;;;;;;26.04;57.70;101180.94;4988959;28;19920;-79
2023/07/04 05:02:56;;;;;;;;;;;;;;;26.03;57.59;101181.81;4993134;28;19917;-80
2023/07/04 05:05:22;;;;;;;;;;;;;;;26.02;57.65;101177.38;4993869;28;19936;-83
2023/07/04 05:07:48;;;;;;;;;;;;;;;26.00;57.39;101188.06;4991734;28;20304;-82
2023/07/04 05:10:15;;;;;;;;;;;;;;;26.01;57.55;101184.47;4984482;28;20349;-81
2023/07/04 05:12:42;;;;;;;;;;;;;;;26.01;58.03;101184.47;4990598;28;19913;-82
2023/07/04 05:15:08;;;;;;;;;;;;;;;25.99;58.07;101183.59;4980500;28;19971;-82
2023/07/04 05:17:33;;;;;;;;;;;;;;;25.98;57.84;101188.06;4990167;28;19913;-82
2023/07/04 05:20:00;;;;;;;;;;;;;;;25.98;57.88;101188.06;4990308;28;20447;-81
2023/07/04 05:22:25;;;;;;;;;;;;;;;25.96;57.80;101192.53;4990145;28;19980;-83
2023/07/04 05:24:51;;;;;;;;;;;;;;;25.89;58.06;101198.81;4990537;28;19910;-79
2023/07/04 05:27:16;;;;;;;;;;;;;;;25.92;57.66;101196.09;4993649;28;20294;-81
2023/07/04 05:29:41;;;;;;;;;;;;;;;25.94;58.17;101194.31;4988790;28;19921;-81
2023/07/04 05:32:08;;;;;;;;;;;;;;;25.98;57.74;101195.22;4999365;28;19965;-82
2023/07/04 05:34:33;;;;;;;;;;;;;;;25.95;57.65;101193.44;4995813;28;20407;-82
2023/07/04 05:37:01;;;;;;;;;;;;;;;25.96;57.58;101195.19;5008655;28;19913;-83
2023/07/04 05:39:26;;;;;;;;;;;;;;;25.96;57.48;101197.00;5005554;28;20005;-82
2023/07/04 05:41:51;;;;;;;;;;;;;;;25.96;57.34;101199.69;5011941;28;20059;-82
2023/07/04 05:44:19;;;;;;;;;;;;;;;25.96;57.37;101202.34;5014835;28;20019;-83
2023/07/04 05:46:44;;;;;;;;;;;;;;;25.98;57.18;101204.13;5008176;28;19913;-81
2023/07/04 05:49:10;;;;;;;;;;;;;;;25.96;57.05;101205.91;5011800;28;20071;-80
2023/07/04 05:51:35;;;;;;;;;;;;;;;25.97;56.98;101215.72;5029002;28;20271;-80
2023/07/04 05:54:01;;;;;;;;;;;;;;;25.95;57.06;101209.50;5016017;28;19913;-81
2023/07/04 05:56:27;;;;;;;;;;;;;;;25.88;57.34;101198.75;4995213;28;19917;-81
2023/07/04 05:58:53;;;;;;;;;;;;;;;25.93;57.16;101205.94;5013902;28;20014;-81
2023/07/04 06:01:27;;;;;;;;;;;;;;;25.90;57.01;101213.94;5015631;28;19927;-80
2023/07/04 06:03:53;;;;;;;;;;;;;;;25.91;57.44;101220.22;4992266;28;19943;-81
2023/07/04 06:06:20;;;;;;;;;;;;;;;25.88;57.05;101213.03;5005486;28;20380;-81
2023/07/04 06:08:46;;;;;;;;;;;;;;;25.88;57.25;101222.84;5016789;28;19917;-81
2023/07/04 06:11:11;;;;;;;;;;;;;;;25.87;57.56;101226.44;5000375;28;20368;-81
2023/07/04 06:13:37;;;;;;;;;;;;;;;25.85;57.31;101226.44;5003669;28;19913;-81
2023/07/04 06:16:03;;;;;;;;;;;;;;;25.90;57.18;101224.66;5024660;28;19995;-81
2023/07/04 06:18:28;;;;;;;;;;;;;;;25.86;57.39;101222.84;4993368;28;19996;-80
2023/07/04 06:21:04;;;;;;;;;;;;;;;25.86;57.57;101225.50;5012737;28;20016;-81
2023/07/04 06:23:29;;;;;;;;;;;;;;;25.88;57.30;101221.06;4995297;28;20506;-81
2023/07/04 06:25:56;;;;;;;;;;;;;;;25.90;57.41;101230.00;4995704;28;19919;-80
2023/07/04 06:28:21;;;;;;;;;;;;;;;25.92;57.14;101233.56;5021357;28;19918;-81
2023/07/04 06:30:47;;;;;;;;;;;;;;;25.91;57.48;101225.56;5011518;28;20445;-82
2023/07/04 06:33:12;;;;;;;;;;;;;;;25.92;56.97;101233.56;5010673;28;20008;-82
2023/07/04 06:35:43;;;;;;;;;;;;;;;25.94;57.32;101237.13;5005895;28;20427;-82
2023/07/04 06:38:09;;;;;;;;;;;;;;;25.94;57.28;101234.47;5001551;28;19931;-82
2023/07/04 06:40:34;;;;;;;;;;;;;;;25.92;57.14;101241.59;5017757;28;19918;-81
2023/07/04 06:43:00;;;;;;;;;;;;;;;25.96;57.20;101238.03;5004994;28;20308;-81
2023/07/04 06:45:25;;;;;;;;;;;;;;;25.99;57.32;101237.13;5001033;28;19916;-82
2023/07/04 06:47:51;;;;;;;;;;;;;;;25.96;57.28;101235.34;5006474;28;19929;-82
2023/07/04 06:50:16;;;;;;;;;;;;;;;25.97;57.20;101239.81;5013198;28;19921;-80
2023/07/04 06:52:42;;;;;;;;;;;;;;;26.00;57.13;101241.59;5012000;28;19913;-82
2023/07/04 06:55:07;;;;;;;;;;;;;;;26.03;57.14;101243.38;5012628;28;20450;-82
2023/07/04 06:57:33;;;;;;;;;;;;;;;26.00;57.44;101246.94;5010330;28;20308;-80
2023/07/04 06:59:58;;;;;;;;;;;;;;;26.05;57.12;101245.13;5006357;28;20024;-81
2023/07/04 07:02:25;;;;;;;;;;;;;;;26.04;57.04;101247.84;5003495;28;20379;-82
2023/07/04 07:04:50;;;;;;;;;;;;;;;26.04;57.17;101250.53;5003562;28;19917;-82
2023/07/04 07:07:16;;;;;;;;;;;;;;;26.06;57.12;101249.63;5014334;28;19913;-81
2023/07/04 07:09:41;;;;;;;;;;;;;;;26.02;57.40;101245.16;5004161;28;20352;-82
2023/07/04 07:12:08;;;;;;;;;;;;;;;26.03;57.50;101243.38;5010037;28;19940;-82
2023/07/04 07:14:33;;;;;;;;;;;;;;;26.12;57.46;101240.66;4997823;28;19932;-82
2023/07/04 07:16:59;;;;;;;;;;;;;;;26.11;57.79;101241.56;4998484;28;20454;-81
2023/07/04 07:19:26;;;;;;;;;;;;;;;26.08;57.39;101242.47;4994261;28;19914;-82
2023/07/04 07:21:51;;;;;;;;;;;;;;;26.06;57.30;101238.91;4995420;28;19913;-81
2023/07/04 07:24:17;;;;;;;;;;;;;;;26.08;57.76;101236.22;5008786;28;19917;-82
2023/07/04 07:26:45;;;;;;;;;;;;;;;26.10;57.81;101245.13;5014588;28;19913;-82
2023/07/04 07:29:11;;;;;;;;;;;;;;;26.11;57.71;101239.78;5006282;28;19967;-81
2023/07/04 07:31:36;;;;;;;;;;;;;;;26.11;57.56;101239.78;5011773;28;20363;-81
2023/07/04 07:34:02;;;;;;;;;;;;;;;26.13;57.54;101242.47;4993879;28;19991;-82
2023/07/04 07:36:30;;;;;;;;;;;;;;;26.14;57.66;101245.13;5004568;28;19917;-81
2023/07/04 07:38:56;;;;;;;;;;;;;;;26.12;57.96;101252.28;5008027;28;19922;-81
2023/07/04 07:41:22;;;;;;;;;;;;;;;26.15;58.09;101248.69;5015276;28;19986;-82
2023/07/04 07:43:47;;;;;;;;;;;;;;;26.15;58.00;101252.25;4992079;28;19925;-82
2023/07/04 07:46:14;;;;;;;;;;;;;;;26.14;58.23;101253.16;4998381;28;19917;-81
2023/07/04 07:48:41;;;;;;;;;;;;;;;26.17;58.36;101254.94;5018095;28;19914;-81
2023/07/04 07:51:08;;;;;;;;;;;;;;;26.17;58.82;101249.59;5011348;28;19920;-80
2023/07/04 07:53:36;;;;;;;;;;;;;;;26.19;57.97;101253.16;4991010;28;19913;-81
2023/07/04 07:56:05;;;;;;;;;;;;;;;26.20;58.41;101250.47;5012365;28;19913;-82
2023/07/04 07:58:31;;;;;;;;;;;;;;;26.18;58.08;101257.63;5019900;28;19917;-81
2023/07/04 08:00:56;;;;;;;;;;;;;;;26.21;58.95;101254.03;5005545;28;19917;-81
2023/07/04 08:03:22;;;;;;;;;;;;;;;26.22;59.27;101257.59;5002771;28;20396;-82
2023/07/04 08:05:48;;;;;;;;;;;;;;;26.20;58.89;101260.25;5005917;28;19964;-82
2023/07/04 08:08:13;;;;;;;;;;;;;;;26.21;59.14;101262.06;5000491;28;20387;-83
2023/07/04 08:10:39;;;;;;;;;;;;;;;26.20;58.86;101260.25;4997120;28;19920;-82
2023/07/04 08:13:05;;;;;;;;;;;;;;;26.23;58.42;101254.94;4991451;28;20308;-82
2023/07/04 08:15:31;;;;;;;;;;;;;;;26.25;58.72;101262.97;5008770;28;19910;-82
2023/07/04 08:18:11;;;;;;;;;;;;;;;26.23;58.37;101265.63;5067757;27;19917;-81
2023/07/04 08:20:56;;;;;;;;;;;;;;;26.24;58.41;101266.50;5072611;28;19990;-81
2023/07/04 08:23:21;;;;;;;;;;;;;;;26.28;58.75;101263.81;5104943;28;19916;-83
2023/07/04 08:25:47;;;;;;;;;;;;;;;26.26;58.56;101257.56;5101069;28;19974;-82
2023/07/04 08:28:12;;;;;;;;;;;;;;;26.28;58.41;101260.25;5067688;28;20312;-82
2023/07/04 08:30:38;;;;;;;;;;;;;;;26.24;58.75;101263.84;5067352;28;19924;-81
2023/07/04 08:33:03;;;;;;;;;;;;;;;26.28;58.66;101263.81;5073650;28;19924;-81
2023/07/04 08:35:28;;;;;;;;;;;;;;;26.28;58.11;101263.81;5066946;28;20310;-81
2023/07/04 08:37:54;;;;;;;;;;;;;;;26.28;58.17;101261.13;5067933;28;20283;-83
2023/07/04 08:40:19;;;;;;;;;;;;;;;26.29;58.00;101268.28;5067194;28;20318;-81
2023/07/04 08:42:45;;;;;;;;;;;;;;;26.27;58.08;101271.84;5075038;28;20319;-82
2023/07/04 08:45:11;;;;;;;;;;;;;;;26.33;58.17;101259.34;5101546;28;19920;-81
2023/07/04 08:47:37;;;;;;;;;;;;;;;26.36;57.67;101266.50;5066191;28;20556;-81
2023/07/04 08:50:09;;;;;;;;;;;;;;;26.36;57.95;101266.50;5066713;28;20054;-81
2023/07/04 08:52:40;;;;;;;;;;;;;;;26.37;57.85;101268.25;5084768;28;20683;-81
2023/07/04 08:55:10;;;;;;;;;;;;;;;26.37;57.80;101274.53;5104649;28;19920;-81
2023/07/04 08:57:56;;;;;;;;;;;;;;;26.38;57.92;101272.72;5065280;28;19932;-81
2023/07/04 09:00:28;;;;;;;;;;;;;;;26.37;58.03;101277.19;5072132;28;19917;-82
2023/07/04 09:03:12;;;;;;;;;;;;;;;26.39;57.97;101283.44;5073563;28;19973;-83
2023/07/04 09:05:38;;;;;;;;;;;;;;;26.39;57.85;101278.09;5067180;28;20019;-82
2023/07/04 09:08:09;;;;;;;;;;;;;;;26.41;57.88;101280.75;5066565;28;20454;-82
2023/07/04 09:10:49;;;;;;;;;;;;;;;26.43;57.84;101283.41;5066424;28;20019;-82
2023/07/04 09:13:17;;;;;;;;;;;;;;;26.42;57.97;101290.56;5098895;28;20417;-83
2023/07/04 09:15:43;;;;;;;;;;;;;;;26.43;58.01;101291.44;5065319;28;20388;-81
2023/07/04 09:18:08;;;;;;;;;;;;;;;26.45;57.87;101285.19;5100144;28;19916;-82
2023/07/04 09:20:37;;;;;;;;;;;;;;;26.42;58.85;101285.22;5067777;28;20008;-82
2023/07/04 09:23:07;;;;;;;;;;;;;;;26.42;58.42;101285.22;5085110;28;19916;-83
2023/07/04 09:25:32;;;;;;;;;;;;;;;26.46;58.15;101280.72;5066870;28;20341;-82
2023/07/04 09:27:58;;;;;;;;;;;;;;;26.47;58.45;101282.50;5060643;28;19931;-83
2023/07/04 09:30:23;;;;;;;;;;;;;;;26.48;58.34;101276.25;5053535;28;20434;-81
2023/07/04 09:32:48;;;;;;;;;;;;;;;26.49;58.37;101286.97;5054133;28;20394;-83
2023/07/04 09:35:14;;;;;;;;;;;;;;;26.46;58.84;101289.66;5053335;28;20420;-82
2023/07/04 09:37:59;;;;;;;;;;;;;;;26.50;58.49;101291.44;5053311;28;20377;-83
2023/07/04 09:40:40;;;;;;;;;;;;;;;26.49;58.77;101296.78;5052017;28;19948;-83
2023/07/04 09:43:07;;;;;;;;;;;;;;;26.51;58.57;101292.31;5052054;28;19925;-82
2023/07/04 09:45:32;;;;;;;;;;;;;;;26.49;59.06;101294.13;5053080;28;19923;-81
2023/07/04 09:47:58;;;;;;;;;;;;;;;26.52;58.50;101292.31;5054026;28;20364;-82
2023/07/04 09:50:29;;;;;;;;;;;;;;;26.53;58.61;101293.22;5053248;28;19920;-82
2023/07/04 09:53:09;;;;;;;;;;;;;;;26.54;58.43;101298.56;5062970;28;19966;-82
2023/07/04 09:55:35;;;;;;;;;;;;;;;26.56;58.46;101293.19;5058057;28;19959;-81
2023/07/04 09:58:16;;;;;;;;;;;;;;;26.58;58.82;101297.66;5052934;28;19921;-83
2023/07/04 10:00:45;;;;;;;;;;;;;;;26.59;58.67;101293.22;5058345;28;19921;-82
2023/07/04 10:03:10;;;;;;;;;;;;;;;26.58;58.79;101286.94;5053072;28;19917;-83
2023/07/04 10:05:36;;;;;;;;;;;;;;;26.56;59.16;101296.81;5052029;28;19921;-83
2023/07/04 10:08:08;;;;;;;;;;;;;;;26.60;58.96;101295.00;5095873;28;19943;-83
2023/07/04 10:10:54;;;;;;;;;;;;;;;26.58;59.36;101292.31;5058588;28;20389;-84
2023/07/04 10:13:20;;;;;;;;;;;;;;;26.63;58.55;101286.03;5051872;28;19913;-81
2023/07/04 10:15:46;;;;;;;;;;;;;;;26.64;58.95;101293.19;5051035;28;19994;-81
2023/07/04 10:18:32;;;;;;;;;;;;;;;26.62;58.74;101295.00;5066041;28;20394;-83
2023/07/04 10:20:58;;;;;;;;;;;;;;;26.62;59.46;101290.53;5052918;28;19932;-82
2023/07/04 10:23:24;;;;;;;;;;;;;;;26.63;59.24;101289.63;5052922;28;19923;-83
2023/07/04 10:25:50;;;;;;;;;;;;;;;26.60;59.93;101281.59;5059004;28;19916;-81
2023/07/04 10:28:18;;;;;;;;;;;;;;;26.63;59.51;101283.38;5057883;28;19924;-82
2023/07/04 10:30:48;;;;;;;;;;;;;;;26.62;59.76;101273.56;5083731;28;19950;-82
2023/07/04 10:33:24;;;;;;;;;;;;;;;26.62;59.89;101281.59;5051107;28;19917;-81
2023/07/04 10:35:50;;;;;;;;;;;;;;;26.63;59.34;101295.00;5092506;28;19916;-83
2023/07/04 10:38:23;;;;;;;;;;;;;;;26.66;59.83;101288.72;5052761;28;19928;-81
2023/07/04 10:40:49;;;;;;;;;;;;;;;26.68;59.58;101284.25;5051160;28;20468;-81
2023/07/04 10:43:18;;;;;;;;;;;;;;;26.69;59.46;101286.94;5056393;28;20457;-81
2023/07/04 10:45:43;;;;;;;;;;;;;;;26.70;59.50;101285.13;5051899;28;20019;-82
2023/07/04 10:48:10;;;;;;;;;;;;;;;26.74;59.52;101282.44;5051888;28;20438;-81
2023/07/04 10:50:36;;;;;;;;;;;;;;;26.76;59.31;101285.13;5087845;28;19943;-82
2023/07/04 10:53:01;;;;;;;;;;;;;;;26.73;59.51;101280.66;5094167;28;19917;-82
2023/07/04 10:55:40;;;;;;;;;;;;;;;26.74;59.41;101286.91;5051632;28;19917;-82
2023/07/04 10:58:26;;;;;;;;;;;;;;;26.74;59.54;101290.47;5084363;28;19921;-81
2023/07/04 11:00:51;;;;;;;;;;;;;;;26.74;59.39;101287.78;5056947;28;19917;-81
2023/07/04 11:03:19;;;;;;;;;;;;;;;26.80;59.24;101286.88;5051886;28;19924;-82
2023/07/04 11:05:45;;;;;;;;;;;;;;;26.81;59.24;101280.63;5050406;28;20405;-82
2023/07/04 11:08:15;;;;;;;;;;;;;;;26.79;59.17;101277.94;5058781;28;20394;-82
2023/07/04 11:10:41;;;;;;;;;;;;;;;26.80;58.92;101273.47;5050306;28;20061;-81
2023/07/04 11:13:07;;;;;;;;;;;;;;;26.81;59.00;101276.13;5083925;28;20382;-81
2023/07/04 11:15:36;;;;;;;;;;;;;;;26.84;59.19;101277.00;5051640;28;19917;-82
2023/07/04 11:18:01;;;;;;;;;;;;;;;26.84;59.06;101274.34;5038385;28;19986;-82
2023/07/04 11:20:37;;;;;;;;;;;;;;;26.84;59.42;101268.97;5070491;28;20401;-81
2023/07/04 11:23:04;;;;;;;;;;;;;;;26.88;59.10;101268.06;5051521;28;19917;-83
2023/07/04 11:25:33;;;;;;;;;;;;;;;26.89;59.26;101264.50;5083396;28;19921;-82
2023/07/04 11:28:16;;;;;;;;;;;;;;;26.87;59.65;101263.63;5051198;28;19927;-81
2023/07/04 11:30:45;;;;;;;;;;;;;;;26.89;59.14;101265.38;5051233;28;19921;-81
2023/07/04 11:33:30;;;;;;;;;;;;;;;26.90;59.79;101267.19;5050440;28;20322;-81
2023/07/04 11:35:55;;;;;;;;;;;;;;;26.88;59.62;101265.38;5051496;28;20584;-81
2023/07/04 11:38:21;;;;;;;;;;;;;;;26.91;59.77;101260.03;5050099;28;19924;-81
2023/07/04 11:40:49;;;;;;;;;;;;;;;26.91;59.84;101260.91;5051229;28;19917;-80
2023/07/04 11:43:21;;;;;;;;;;;;;;;26.92;60.45;101257.31;5050105;28;20593;-81
2023/07/04 11:45:47;;;;;;;;;;;;;;;26.93;60.26;101258.22;5056893;28;19979;-81
2023/07/04 11:48:14;;;;;;;;;;;;;;;26.98;59.49;101254.59;5054320;28;19948;-82
2023/07/04 11:50:42;;;;;;;;;;;;;;;26.95;60.29;101262.66;5054495;28;19969;-82
2023/07/04 11:53:14;;;;;;;;;;;;;;;26.98;60.40;101251.03;5091700;28;19924;-82
2023/07/04 11:55:39;;;;;;;;;;;;;;;26.98;60.01;101254.59;5053828;28;19924;-81
2023/07/04 11:58:09;;;;;;;;;;;;;;;26.98;59.70;101253.72;5083152;28;19927;-81
2023/07/04 12:00:40;;;;;;;;;;;;;;;27.01;59.99;101251.91;5050438;28;20004;-81
2023/07/04 12:03:18;;;;;;;;;;;;;;;27.02;59.38;101250.13;5051638;28;19920;-82
2023/07/04 12:05:46;;;;;;;;;;;;;;;27.02;59.86;101258.16;5051068;28;20382;-81
2023/07/04 12:08:38;;;;;;;;;;;;;;;27.03;59.68;101251.91;5083334;28;19921;-81
2023/07/04 12:11:04;;;;;;;;;;;;;;;27.06;59.83;101248.31;5050407;28;19917;-81
2023/07/04 12:13:30;;;;;;;;;;;;;;;27.04;60.27;101245.63;5049865;28;19959;-82
2023/07/04 12:15:56;;;;;;;;;;;;;;;27.06;60.31;101251.00;5049700;28;19949;-80
2023/07/04 12:18:29;;;;;;;;;;;;;;;27.08;59.95;101255.44;5078959;28;19917;-82
2023/07/04 12:20:56;;;;;;;;;;;;;;;27.10;59.67;101256.31;5082323;28;19917;-82
2023/07/04 12:23:21;;;;;;;;;;;;;;;27.09;60.51;101249.16;5083187;28;19917;-82
2023/07/04 12:25:48;;;;;;;;;;;;;;;27.09;60.21;101250.97;5082830;28;19924;-82
2023/07/04 12:28:15;;;;;;;;;;;;;;;27.10;60.63;101250.09;5051373;28;19917;-82
2023/07/04 12:30:51;;;;;;;;;;;;;;;27.08;60.54;101252.75;5071326;28;19986;-84
2023/07/04 12:33:23;;;;;;;;;;;;;;;27.07;60.12;101256.31;5049519;28;19927;-82
2023/07/04 12:35:59;;;;;;;;;;;;;;;27.10;60.32;101256.31;5050337;28;19916;-81